Time;durP1;ratioP1;P1;durP2;ratioP2;P2;SDS_P1;SDS_P2;PMS_P1;PMS_P2;Temp;Humidity;BMP_temperature;BMP_pressure;BME280_temperature;BME280_humidity;BME280_pressure;Samples;Min_cycle;Max_cycle;Signal;HPM_P1;HPM_P2
2023/01/26 00:01:16;;;;;;;1011.58;931.20;;;-0.70;99.90;;;;;;5045630;28;20385;-56
2023/01/26 00:03:42;;;;;;;1037.60;953.67;;;-0.70;99.90;;;;;;5044969;28;20468;-58
2023/01/26 00:06:10;;;;;;;1014.17;932.80;;;-0.60;99.90;;;;;;5046250;28;20488;-59
2023/01/26 00:08:36;;;;;;;956.05;883.05;;;-0.50;99.90;;;;;;5046449;28;20785;-58
2023/01/26 00:11:04;;;;;;;888.00;821.40;;;-0.50;99.90;;;;;;5048130;28;20425;-57
2023/01/26 00:13:30;;;;;;;809.35;752.17;;;-0.40;99.90;;;;;;5046467;28;20385;-58
2023/01/26 00:15:55;;;;;;;807.80;750.10;;;-0.50;99.90;;;;;;5046087;28;20386;-55
2023/01/26 00:18:21;;;;;;;763.63;710.53;;;-0.40;99.90;;;;;;5046562;28;20386;-56
2023/01/26 00:20:47;;;;;;;763.67;710.60;;;-0.50;99.90;;;;;;5045769;28;20971;-56
2023/01/26 00:23:13;;;;;;;778.28;724.08;;;-0.50;99.90;;;;;;5047055;28;20405;-57
2023/01/26 00:25:41;;;;;;;783.67;728.33;;;-0.40;99.90;;;;;;5045795;28;20478;-59
2023/01/26 00:28:06;;;;;;;759.83;707.22;;;-0.40;99.90;;;;;;5043813;28;20934;-56
2023/01/26 00:30:32;;;;;;;733.20;683.47;;;-0.50;99.90;;;;;;5044320;28;20566;-59
2023/01/26 00:32:57;;;;;;;835.50;775.83;;;-0.60;99.90;;;;;;5045939;28;20890;-56
2023/01/26 00:35:23;;;;;;;898.73;831.53;;;-0.60;99.90;;;;;;5045764;28;20393;-57
2023/01/26 00:37:49;;;;;;;1006.03;926.72;;;-0.60;99.90;;;;;;5047429;28;20735;-58
2023/01/26 00:40:14;;;;;;;999.58;920.15;;;-0.60;99.90;;;;;;5047131;28;20532;-58
2023/01/26 00:42:40;;;;;;;885.00;819.67;;;-0.50;99.90;;;;;;5050574;28;20498;-57
2023/01/26 00:45:06;;;;;;;893.63;828.83;;;-0.50;99.90;;;;;;5048991;28;20429;-57
2023/01/26 00:47:32;;;;;;;854.78;793.85;;;-0.40;99.90;;;;;;4985104;28;1827484;-56
2023/01/26 00:49:58;;;;;;;847.85;787.47;;;-0.40;99.90;;;;;;5046530;28;20779;-59
2023/01/26 00:52:23;;;;;;;726.15;677.35;;;-0.40;99.90;;;;;;5049542;28;20427;-57
2023/01/26 00:54:49;;;;;;;832.67;773.92;;;-0.50;99.90;;;;;;5049411;28;20472;-56
2023/01/26 00:57:14;;;;;;;829.37;770.57;;;-0.50;99.90;;;;;;5050153;28;20416;-58
2023/01/26 00:59:40;;;;;;;767.63;715.13;;;-0.40;99.90;;;;;;5048662;28;20879;-56
2023/01/26 01:02:05;;;;;;;790.55;736.38;;;-0.40;99.90;;;;;;5047890;28;20726;-59
2023/01/26 01:04:31;;;;;;;753.10;701.95;;;-0.40;99.90;;;;;;5048990;28;20385;-58
2023/01/26 01:06:57;;;;;;;812.92;756.47;;;-0.40;99.90;;;;;;5048555;28;20451;-53
2023/01/26 01:09:23;;;;;;;736.10;686.22;;;-0.30;99.90;;;;;;5046932;28;21059;-59
2023/01/26 01:11:49;;;;;;;782.17;728.65;;;-0.40;99.90;;;;;;5048889;28;20765;-57
2023/01/26 01:14:14;;;;;;;696.67;650.17;;;-0.30;99.90;;;;;;5048253;28;20608;-60
2023/01/26 01:16:41;;;;;;;627.23;587.27;;;-0.30;99.90;;;;;;5046929;28;20697;-59
2023/01/26 01:19:07;;;;;;;736.95;687.40;;;-0.40;99.90;;;;;;5047582;28;20780;-59
2023/01/26 01:21:35;;;;;;;772.88;720.05;;;-0.40;99.90;;;;;;5048243;28;20381;-59
2023/01/26 01:24:00;;;;;;;700.85;653.92;;;-0.40;99.90;;;;;;5047197;28;20764;-56
2023/01/26 01:26:26;;;;;;;725.45;676.80;;;-0.40;99.90;;;;;;5047987;28;20774;-59
2023/01/26 01:28:55;;;;;;;801.30;746.08;;;-0.40;99.90;;;;;;5046882;28;20466;-55
2023/01/26 01:31:21;;;;;;;844.30;784.65;;;-0.50;99.90;;;;;;5048580;28;20397;-59
2023/01/26 01:33:47;;;;;;;898.87;833.63;;;-0.50;99.90;;;;;;5049346;28;20407;-56
2023/01/26 01:36:15;;;;;;;855.47;794.07;;;-0.40;99.90;;;;;;5048898;28;20389;-58
2023/01/26 01:38:42;;;;;;;831.42;773.95;;;-0.30;99.90;;;;;;5047750;28;20396;-59
2023/01/26 01:41:09;;;;;;;792.75;737.95;;;-0.40;99.90;;;;;;5047940;28;20665;-56
2023/01/26 01:43:35;;;;;;;763.80;711.35;;;-0.40;99.90;;;;;;5047973;28;20606;-55
2023/01/26 01:46:04;;;;;;;855.30;794.35;;;-0.40;99.90;;;;;;5047956;28;20783;-59
2023/01/26 01:48:39;;;;;;;900.45;835.15;;;-0.40;99.90;;;;;;5049560;28;20385;-57
2023/01/26 01:51:13;;;;;;;814.17;758.03;;;-0.30;99.90;;;;;;5047928;28;20400;-59
2023/01/26 01:53:44;;;;;;;879.43;817.03;;;-0.40;99.90;;;;;;5047177;28;20481;-59
2023/01/26 01:56:17;;;;;;;864.92;803.50;;;-0.30;99.90;;;;;;5050608;28;20796;-57
2023/01/26 01:58:44;;;;;;;905.30;839.58;;;-0.40;99.90;;;;;;5048951;28;20401;-57
2023/01/26 02:01:11;;;;;;;982.60;907.90;;;-0.50;99.90;;;;;;5051822;28;20381;-57
2023/01/26 02:03:37;;;;;;;1080.50;991.47;;;-0.50;99.90;;;;;;5051109;28;20715;-58
2023/01/26 02:06:17;;;;;;;1055.13;968.10;;;-0.50;99.90;;;;;;5051358;28;20385;-55
2023/01/26 02:08:46;;;;;;;1001.97;922.85;;;-0.40;99.90;;;;;;5052317;28;20381;-55
2023/01/26 02:11:15;;;;;;;1031.35;948.75;;;-0.50;99.90;;;;;;5053309;28;20393;-59
2023/01/26 02:13:45;;;;;;;993.42;915.88;;;-0.40;99.90;;;;;;5053300;28;20468;-58
2023/01/26 02:16:10;;;;;;;936.28;865.40;;;-0.40;99.90;;;;;;5053553;28;20767;-59
2023/01/26 02:18:36;;;;;;;971.53;897.38;;;-0.40;99.90;;;;;;5052479;28;20471;-58
2023/01/26 02:21:07;;;;;;;946.63;874.80;;;-0.40;99.90;;;;;;5052035;28;20732;-56
2023/01/26 02:23:49;;;;;;;893.42;828.05;;;-0.30;99.90;;;;;;5052926;28;20416;-58
2023/01/26 02:26:38;;;;;;;929.63;862.03;;;-0.40;99.90;;;;;;5051820;28;20377;-57
2023/01/26 02:29:07;;;;;;;935.97;865.92;;;-0.30;99.90;;;;;;5050755;28;20388;-59
2023/01/26 02:31:34;;;;;;;985.92;910.78;;;-0.30;99.90;;;;;;5053653;28;20381;-60
2023/01/26 02:33:59;;;;;;;977.53;901.58;;;-0.30;99.90;;;;;;5055519;28;20416;-58
2023/01/26 02:36:28;;;;;;;932.50;864.40;;;-0.20;99.90;;;;;;5055168;28;20393;-57
2023/01/26 02:39:15;;;;;;;822.50;764.87;;;-0.10;99.90;;;;;;5054175;28;20385;-57
2023/01/26 02:44:26;;;;;;;769.15;716.38;;;-0.20;99.90;;;;;;5052855;28;20596;-57
2023/01/26 02:46:52;;;;;;;851.80;791.85;;;-0.20;99.90;;;;;;5052174;28;20885;-56
2023/01/26 02:52:04;;;;;;;939.15;870.80;;;-0.30;99.90;;;;;;5052544;28;20666;-56
2023/01/26 02:57:14;;;;;;;893.30;829.60;;;-0.20;99.90;;;;;;5051412;28;20431;-57
2023/01/26 02:59:39;;;;;;;859.17;798.47;;;-0.20;99.90;;;;;;5051120;28;20397;-59
2023/01/26 03:02:05;;;;;;;879.03;816.73;;;-0.20;99.90;;;;;;5051489;28;20458;-59
2023/01/26 03:04:31;;;;;;;940.40;871.50;;;-0.20;99.90;;;;;;5051128;28;20462;-58
2023/01/26 03:06:56;;;;;;;923.63;857.13;;;-0.10;99.90;;;;;;5050747;28;20381;-60
2023/01/26 03:09:22;;;;;;;853.97;793.63;;;-0.10;99.90;;;;;;5050445;28;20442;-59
2023/01/26 03:11:47;;;;;;;901.75;837.97;;;-0.20;99.90;;;;;;5049923;28;20378;-59
2023/01/26 03:14:14;;;;;;;911.73;846.47;;;-0.20;99.90;;;;;;5051058;28;20401;-59
2023/01/26 03:16:40;;;;;;;940.47;871.28;;;-0.20;99.90;;;;;;5051306;28;20720;-59
2023/01/26 03:27:26;;;;;;;681.28;637.22;;;0.00;99.90;;;;;;5049070;28;20713;-58
2023/01/26 03:29:52;;;;;;;817.43;760.23;;;-0.10;99.90;;;;;;5050387;28;20677;-59
2023/01/26 03:32:18;;;;;;;840.47;781.47;;;-0.10;99.90;;;;;;5050276;28;20688;-56
2023/01/26 03:34:43;;;;;;;959.53;887.03;;;-0.20;99.90;;;;;;5050153;28;20730;-56
2023/01/26 03:37:10;;;;;;;952.05;881.50;;;-0.10;99.90;;;;;;5050219;28;20458;-57
2023/01/26 03:56:23;;;;;;;932.20;863.93;;;-0.10;99.90;;;;;;5048986;28;20517;-59
2023/01/26 03:58:51;;;;;;;900.00;834.80;;;0.00;99.90;;;;;;5050671;28;20673;-59
2023/01/26 04:01:24;;;;;;;846.63;788.00;;;0.10;99.90;;;;;;5050051;28;20862;-58
2023/01/26 04:09:21;;;;;;;650.58;608.55;;;0.10;99.90;;;;;;5051090;28;20530;-55
2023/01/26 04:11:47;;;;;;;677.70;633.45;;;0.10;99.90;;;;;;5050787;28;20389;-58
2023/01/26 04:22:42;;;;;;;888.90;824.13;;;0.00;99.90;;;;;;5052235;28;20887;-58
2023/01/26 04:25:12;;;;;;;937.38;867.88;;;0.00;99.90;;;;;;5050522;28;20450;-55
2023/01/26 04:27:39;;;;;;;941.53;870.40;;;0.00;99.90;;;;;;5049915;28;20421;-59
2023/01/26 04:30:05;;;;;;;959.95;888.28;;;0.00;99.90;;;;;;5050725;28;20432;-59
2023/01/26 04:32:31;;;;;;;968.80;893.80;;;0.00;99.90;;;;;;5051001;28;20793;-56
2023/01/26 04:34:56;;;;;;;989.55;913.35;;;0.10;99.90;;;;;;5050366;28;20413;-57
2023/01/26 04:37:22;;;;;;;951.63;879.50;;;0.10;99.90;;;;;;5051212;28;20404;-59
2023/01/26 04:39:48;;;;;;;956.00;884.40;;;0.20;99.90;;;;;;5050734;28;20447;-56
2023/01/26 04:42:13;;;;;;;854.60;794.07;;;0.20;99.90;;;;;;5052415;28;20423;-60
2023/01/26 04:44:39;;;;;;;876.67;813.50;;;0.20;99.90;;;;;;5051343;28;20416;-58
2023/01/26 04:47:04;;;;;;;834.35;776.45;;;0.20;99.90;;;;;;5051339;28;20413;-59
2023/01/26 04:49:30;;;;;;;730.90;680.88;;;0.20;99.90;;;;;;5051342;28;20385;-58
2023/01/26 04:51:58;;;;;;;803.87;748.27;;;0.20;99.90;;;;;;5053682;28;20405;-57
2023/01/26 04:54:24;;;;;;;815.22;758.33;;;0.20;99.90;;;;;;5050027;28;20388;-59
2023/01/26 04:56:50;;;;;;;815.20;759.27;;;0.20;99.90;;;;;;5049337;28;20398;-57
2023/01/26 04:59:16;;;;;;;757.28;705.28;;;0.30;99.90;;;;;;5047497;28;20408;-60
2023/01/26 05:01:42;;;;;;;696.75;651.03;;;0.30;99.90;;;;;;5045745;28;20533;-60
2023/01/26 05:04:10;;;;;;;766.88;714.72;;;0.20;99.90;;;;;;5044228;28;20727;-58
2023/01/26 05:06:37;;;;;;;710.42;663.65;;;0.30;99.90;;;;;;5045375;28;20630;-60
2023/01/26 05:09:03;;;;;;;684.13;639.38;;;0.30;99.90;;;;;;5045538;28;20400;-60
2023/01/26 05:11:29;;;;;;;642.50;601.35;;;0.30;99.90;;;;;;5047103;28;20664;-59
2023/01/26 05:13:55;;;;;;;723.88;675.35;;;0.20;99.90;;;;;;5045525;28;20401;-59
2023/01/26 05:16:20;;;;;;;789.28;734.78;;;0.20;99.90;;;;;;5047358;28;20393;-59
2023/01/26 05:18:46;;;;;;;808.13;751.97;;;0.30;99.90;;;;;;5053385;28;20641;-59
2023/01/26 05:21:11;;;;;;;838.80;779.47;;;0.30;99.90;;;;;;5053415;28;20707;-60
2023/01/26 05:23:37;;;;;;;834.93;776.37;;;0.30;99.90;;;;;;5054406;28;20417;-60
2023/01/26 05:26:03;;;;;;;859.67;799.13;;;0.20;99.90;;;;;;5053090;28;20639;-59
2023/01/26 05:28:29;;;;;;;831.38;773.60;;;0.20;99.90;;;;;;5055402;28;20396;-59
2023/01/26 05:30:54;;;;;;;882.40;819.30;;;0.30;99.90;;;;;;5054399;28;20390;-60
2023/01/26 05:33:21;;;;;;;835.93;777.67;;;0.30;99.90;;;;;;5054001;28;20393;-59
2023/01/26 05:35:50;;;;;;;918.15;851.95;;;0.30;99.90;;;;;;5052758;28;20464;-59
2023/01/26 05:38:16;;;;;;;864.83;802.42;;;0.30;99.90;;;;;;5051789;28;20390;-59
2023/01/26 05:40:42;;;;;;;869.95;808.67;;;0.30;99.90;;;;;;5052417;28;20400;-56
2023/01/26 05:43:07;;;;;;;899.78;835.10;;;0.30;99.90;;;;;;5052751;28;20709;-60
2023/01/26 05:45:34;;;;;;;901.97;837.38;;;0.30;99.90;;;;;;5051441;28;20436;-59
2023/01/26 05:47:59;;;;;;;906.05;841.03;;;0.30;99.90;;;;;;5049729;28;20520;-59
2023/01/26 05:50:25;;;;;;;924.15;856.58;;;0.30;99.90;;;;;;5049127;28;20547;-59
2023/01/26 05:52:51;;;;;;;934.17;866.10;;;0.40;99.90;;;;;;5049791;28;20420;-59
2023/01/26 05:55:17;;;;;;;916.93;849.23;;;0.40;99.90;;;;;;5050588;28;20466;-54
2023/01/26 05:57:43;;;;;;;973.95;900.78;;;0.40;99.90;;;;;;5049468;28;20389;-53
2023/01/26 06:00:10;;;;;;;946.90;875.73;;;0.40;99.90;;;;;;5048296;28;20511;-55
2023/01/26 06:02:35;;;;;;;918.40;851.78;;;0.40;99.90;;;;;;5047698;28;20434;-53
2023/01/26 06:05:01;;;;;;;887.97;825.60;;;0.40;99.90;;;;;;5047444;28;20389;-57
2023/01/26 06:07:27;;;;;;;876.63;814.57;;;0.40;99.90;;;;;;5048616;28;20389;-59
2023/01/26 06:09:52;;;;;;;871.93;811.03;;;0.40;99.90;;;;;;5046755;28;20386;-59
2023/01/26 06:12:20;;;;;;;830.85;774.30;;;0.40;99.90;;;;;;5046128;28;20496;-56
2023/01/26 06:14:46;;;;;;;868.85;807.58;;;0.40;99.90;;;;;;5046961;28;20397;-58
2023/01/26 06:17:13;;;;;;;844.42;785.83;;;0.40;99.90;;;;;;5047781;28;20621;-58
2023/01/26 06:19:38;;;;;;;847.20;788.03;;;0.40;99.90;;;;;;5049072;28;20374;-58
2023/01/26 06:22:08;;;;;;;827.75;770.33;;;0.50;99.90;;;;;;5048279;28;20709;-59
2023/01/26 06:24:34;;;;;;;785.20;732.60;;;0.50;99.90;;;;;;5048033;28;20472;-58
2023/01/26 06:27:00;;;;;;;720.33;673.90;;;0.40;99.90;;;;;;5047934;28;20392;-58
2023/01/26 06:29:25;;;;;;;831.00;774.08;;;0.40;99.90;;;;;;5046420;28;20401;-56
2023/01/26 06:31:51;;;;;;;820.70;764.97;;;0.40;99.90;;;;;;5047222;28;20548;-59
2023/01/26 06:34:17;;;;;;;781.80;729.22;;;0.50;99.90;;;;;;5047946;28;20459;-59
2023/01/26 06:36:43;;;;;;;776.55;725.00;;;0.40;99.90;;;;;;5050112;28;20393;-57
2023/01/26 06:39:11;;;;;;;762.13;711.35;;;0.40;99.90;;;;;;5049116;28;20404;-57
2023/01/26 06:41:36;;;;;;;859.65;799.35;;;0.40;99.90;;;;;;5048329;28;20389;-55
2023/01/26 06:44:02;;;;;;;823.43;766.73;;;0.50;99.90;;;;;;5046758;28;20417;-57
2023/01/26 06:46:27;;;;;;;846.30;787.53;;;0.50;99.90;;;;;;5045977;28;20850;-59
2023/01/26 06:48:53;;;;;;;820.10;763.67;;;0.50;99.90;;;;;;5047565;28;20396;-57
2023/01/26 06:51:18;;;;;;;733.63;685.35;;;0.50;99.90;;;;;;5046469;28;20381;-58
2023/01/26 06:53:55;;;;;;;776.43;724.33;;;0.50;99.90;;;;;;5044681;28;20394;-56
2023/01/26 06:56:23;;;;;;;836.05;778.67;;;0.50;99.90;;;;;;5041058;28;20389;-58
2023/01/26 06:58:48;;;;;;;806.85;751.95;;;0.50;99.90;;;;;;5042245;28;20393;-59
2023/01/26 07:01:16;;;;;;;729.13;681.03;;;0.50;99.90;;;;;;5041427;28;20451;-55
2023/01/26 07:03:42;;;;;;;784.27;731.53;;;0.50;99.90;;;;;;5042397;28;20795;-57
2023/01/26 07:06:10;;;;;;;722.53;674.83;;;0.60;99.90;;;;;;5040823;28;20813;-56
2023/01/26 07:08:36;;;;;;;729.60;681.85;;;0.50;99.90;;;;;;5041146;28;20757;-57
2023/01/26 07:11:02;;;;;;;799.28;745.17;;;0.50;99.90;;;;;;5043468;28;20931;-54
2023/01/26 07:13:27;;;;;;;839.70;781.08;;;0.50;99.90;;;;;;5042010;28;20562;-58
2023/01/26 07:16:03;;;;;;;751.83;701.10;;;0.60;99.90;;;;;;5044937;28;20697;-58
2023/01/26 07:18:29;;;;;;;660.08;618.88;;;0.60;99.90;;;;;;5044560;28;20389;-58
2023/01/26 07:21:03;;;;;;;717.43;670.00;;;0.50;99.90;;;;;;5041185;28;20846;-56
2023/01/26 07:23:28;;;;;;;771.60;720.15;;;0.50;99.90;;;;;;5041489;28;20410;-57
2023/01/26 07:25:54;;;;;;;828.87;771.80;;;0.60;99.90;;;;;;5042917;28;20381;-58
2023/01/26 07:28:19;;;;;;;847.03;789.20;;;0.60;99.90;;;;;;5039832;28;20583;-59
2023/01/26 07:30:45;;;;;;;739.05;691.20;;;0.70;99.90;;;;;;5041115;28;20416;-59
2023/01/26 07:33:11;;;;;;;713.28;667.72;;;0.70;99.90;;;;;;5037547;28;20602;-59
2023/01/26 07:35:36;;;;;;;776.03;723.67;;;0.70;99.90;;;;;;5037743;28;20832;-59
2023/01/26 07:38:06;;;;;;;586.93;551.27;;;0.70;99.90;;;;;;5039030;28;20390;-57
2023/01/26 07:40:33;;;;;;;607.45;570.28;;;0.60;99.90;;;;;;5035539;28;20806;-58
2023/01/26 07:42:59;;;;;;;791.03;738.15;;;0.50;99.90;;;;;;5036138;28;20404;-59
2023/01/26 07:45:25;;;;;;;878.53;816.10;;;0.50;99.90;;;;;;5035045;28;20594;-57
2023/01/26 07:47:53;;;;;;;956.92;886.10;;;0.50;99.90;;;;;;5035496;28;20756;-59
2023/01/26 07:50:20;;;;;;;1015.15;935.13;;;0.60;99.90;;;;;;5035367;28;20385;-58
2023/01/26 07:52:46;;;;;;;970.67;896.10;;;0.60;99.90;;;;;;5033310;28;20389;-57
2023/01/26 07:55:13;;;;;;;944.65;873.95;;;0.60;99.90;;;;;;5033158;28;20450;-57
2023/01/26 07:57:38;;;;;;;903.65;838.45;;;0.60;99.90;;;;;;5033610;28;20696;-59
2023/01/26 08:00:04;;;;;;;885.25;821.85;;;0.60;99.90;;;;;;5033941;28;20500;-58
2023/01/26 08:02:30;;;;;;;948.70;878.20;;;0.60;99.90;;;;;;5032902;28;20443;-57
2023/01/26 08:04:55;;;;;;;966.47;892.57;;;0.60;99.90;;;;;;5034697;28;20609;-58
2023/01/26 08:07:21;;;;;;;947.78;878.60;;;0.70;99.90;;;;;;5039056;28;20397;-58
2023/01/26 08:09:47;;;;;;;960.63;887.78;;;0.70;99.90;;;;;;5035710;28;20396;-58
2023/01/26 08:12:12;;;;;;;985.37;908.77;;;0.70;99.90;;;;;;5037044;28;20623;-57
2023/01/26 08:14:38;;;;;;;1001.80;923.73;;;0.70;99.90;;;;;;5033103;28;20433;-59
2023/01/26 08:17:03;;;;;;;1042.87;960.20;;;0.70;99.90;;;;;;5032101;28;20401;-58
2023/01/26 08:19:29;;;;;;;1035.70;950.90;;;0.70;99.90;;;;;;5028500;28;20396;-59
2023/01/26 08:21:56;;;;;;;1050.60;965.40;;;0.70;99.90;;;;;;5024228;28;20604;-59
2023/01/26 08:24:21;;;;;;;1080.88;990.33;;;0.80;99.90;;;;;;5025177;28;20399;-59
2023/01/26 08:26:47;;;;;;;1010.42;929.03;;;0.80;99.90;;;;;;5023495;28;20383;-59
2023/01/26 08:29:13;;;;;;;1019.87;940.20;;;0.80;99.90;;;;;;5025260;28;20696;-59
2023/01/26 08:31:38;;;;;;;1029.10;948.33;;;0.80;99.90;;;;;;5028652;28;20429;-58
2023/01/26 08:34:04;;;;;;;1019.08;937.75;;;0.90;99.90;;;;;;5031048;28;20761;-57
2023/01/26 08:36:29;;;;;;;950.65;878.97;;;0.90;99.90;;;;;;5030298;28;20648;-59
2023/01/26 08:38:55;;;;;;;931.28;862.40;;;0.90;99.90;;;;;;5028454;28;20872;-57
2023/01/26 08:41:21;;;;;;;997.37;919.77;;;0.80;99.90;;;;;;5030071;28;20390;-58
2023/01/26 08:43:47;;;;;;;1055.53;970.13;;;0.70;99.90;;;;;;5027759;28;20827;-62
2023/01/26 08:46:13;;;;;;;1075.10;982.90;;;0.70;99.90;;;;;;5029725;28;20412;-58
2023/01/26 08:48:38;;;;;;;1077.03;985.70;;;0.80;99.90;;;;;;5030786;28;20421;-60
2023/01/26 08:51:05;;;;;;;1086.50;995.93;;;0.80;99.90;;;;;;5033394;28;20616;-60
2023/01/26 08:53:32;;;;;;;1086.38;994.67;;;0.80;99.90;;;;;;5036500;28;20813;-57
2023/01/26 08:56:00;;;;;;;1079.03;988.38;;;0.80;99.90;;;;;;5038182;28;20529;-58
2023/01/26 08:58:27;;;;;;;1096.15;998.78;;;0.80;99.90;;;;;;5042452;28;20397;-58
2023/01/26 09:00:53;;;;;;;1102.23;999.90;;;0.80;99.90;;;;;;5045691;28;20445;-59
2023/01/26 09:03:19;;;;;;;1086.50;991.30;;;0.90;99.90;;;;;;5045425;28;20481;-58
2023/01/26 09:05:44;;;;;;;1099.57;999.90;;;0.90;99.90;;;;;;5045042;28;20842;-59
2023/01/26 09:08:10;;;;;;;1074.43;983.38;;;0.90;99.90;;;;;;5042023;28;20456;-57
2023/01/26 09:10:37;;;;;;;1119.13;999.90;;;0.90;99.90;;;;;;5039845;28;20809;-58
2023/01/26 09:13:03;;;;;;;1074.60;983.88;;;0.90;99.90;;;;;;5041777;28;20389;-58
2023/01/26 09:15:29;;;;;;;1065.97;973.70;;;0.90;99.90;;;;;;5042098;28;20427;-57
2023/01/26 09:17:54;;;;;;;1115.60;999.90;;;0.90;99.90;;;;;;5041224;28;20478;-58
2023/01/26 09:20:20;;;;;;;1124.97;999.90;;;0.90;99.90;;;;;;5036910;28;20780;-55
2023/01/26 09:22:46;;;;;;;1105.63;999.90;;;0.90;99.90;;;;;;5040455;28;20412;-57
2023/01/26 09:25:12;;;;;;;1119.43;999.90;;;1.00;99.90;;;;;;5038742;28;20534;-59
2023/01/26 09:27:38;;;;;;;1052.93;963.73;;;1.10;99.90;;;;;;5039613;28;20890;-58
2023/01/26 09:30:05;;;;;;;1102.20;999.90;;;1.00;99.90;;;;;;5033826;28;20450;-59
2023/01/26 09:32:31;;;;;;;1113.55;999.90;;;1.00;99.90;;;;;;5035377;28;20744;-57
2023/01/26 09:34:56;;;;;;;1120.97;999.90;;;1.00;99.90;;;;;;5038681;28;20420;-59
2023/01/26 09:37:22;;;;;;;1076.40;981.60;;;1.10;99.90;;;;;;5040291;28;20415;-57
2023/01/26 09:39:47;;;;;;;1120.67;999.90;;;1.10;99.90;;;;;;5042122;28;20378;-55
2023/01/26 09:42:42;;;;;;;1088.13;994.53;;;1.10;99.90;;;;;;5041534;28;20389;-55
2023/01/26 09:45:10;;;;;;;1117.10;999.90;;;1.00;99.90;;;;;;5043990;28;20643;-54
2023/01/26 09:48:13;;;;;;;1136.53;999.90;;;1.00;99.90;;;;;;5039345;28;20423;-58
2023/01/26 09:50:53;;;;;;;1142.57;999.90;;;1.10;99.90;;;;;;5045949;28;20387;-55
2023/01/26 09:53:27;;;;;;;1096.47;999.03;;;1.10;99.90;;;;;;5044062;28;20393;-59
2023/01/26 09:55:54;;;;;;;1113.03;999.90;;;1.10;99.90;;;;;;5043513;28;20388;-58
2023/01/26 09:58:36;;;;;;;1080.25;986.10;;;1.00;99.90;;;;;;5042112;28;20870;-59
2023/01/26 10:01:03;;;;;;;1096.57;998.58;;;1.00;99.90;;;;;;5040338;28;20608;-55
2023/01/26 10:03:36;;;;;;;1144.45;999.90;;;1.00;99.90;;;;;;5040536;28;20417;-58
2023/01/26 10:06:25;;;;;;;1133.22;999.90;;;1.00;99.90;;;;;;5041461;28;20385;-58
2023/01/26 10:08:52;;;;;;;1134.28;999.90;;;1.10;99.90;;;;;;5040413;28;20385;-56
2023/01/26 10:11:25;;;;;;;1136.43;999.90;;;1.10;99.90;;;;;;5039637;28;20382;-59
2023/01/26 10:13:58;;;;;;;1132.07;999.90;;;1.10;99.90;;;;;;5040506;28;20443;-57
2023/01/26 10:16:24;;;;;;;1111.32;999.90;;;1.20;99.90;;;;;;5043183;28;20444;-56
2023/01/26 10:18:52;;;;;;;1068.70;976.60;;;1.20;99.90;;;;;;5043054;28;20405;-57
2023/01/26 10:21:20;;;;;;;1062.82;970.00;;;1.30;99.90;;;;;;5044413;28;20393;-54
2023/01/26 10:23:47;;;;;;;1051.55;961.85;;;1.30;99.90;;;;;;5043369;28;20428;-53
2023/01/26 10:26:16;;;;;;;1060.47;970.17;;;1.30;99.90;;;;;;5045503;28;20724;-58
2023/01/26 10:28:44;;;;;;;1060.30;970.80;;;1.30;99.90;;;;;;5047653;28;20373;-55
2023/01/26 10:31:20;;;;;;;1074.78;983.45;;;1.30;99.90;;;;;;5046608;28;20397;-60
2023/01/26 10:33:57;;;;;;;1066.50;974.43;;;1.40;99.90;;;;;;5041248;28;20516;-58
2023/01/26 10:36:23;;;;;;;1072.53;981.50;;;1.40;99.90;;;;;;5042393;28;20678;-59
2023/01/26 10:38:51;;;;;;;1034.15;947.85;;;1.40;99.90;;;;;;5040476;28;20400;-59
2023/01/26 10:41:27;;;;;;;1053.40;966.65;;;1.40;99.90;;;;;;5039891;28;20410;-57
2023/01/26 10:43:58;;;;;;;1034.93;949.53;;;1.40;99.90;;;;;;5039213;28;20413;-59
2023/01/26 10:46:34;;;;;;;1067.03;975.60;;;1.40;99.90;;;;;;5039362;28;20417;-58
2023/01/26 10:49:03;;;;;;;1099.15;999.90;;;1.30;99.90;;;;;;5035445;28;20391;-57
2023/01/26 10:51:33;;;;;;;1082.75;988.28;;;1.40;99.90;;;;;;5037996;28;20392;-59
2023/01/26 10:54:16;;;;;;;1074.07;982.92;;;1.50;99.90;;;;;;5036754;28;20382;-60
2023/01/26 10:56:57;;;;;;;1074.90;983.22;;;1.40;99.90;;;;;;5038833;28;20393;-56
2023/01/26 10:59:40;;;;;;;1082.38;987.35;;;1.50;99.90;;;;;;5037635;28;20492;-58
2023/01/26 11:02:16;;;;;;;1119.43;999.90;;;1.50;99.90;;;;;;5039136;28;21139;-59
2023/01/26 11:05:13;;;;;;;1067.05;973.92;;;1.60;99.90;;;;;;5041578;28;20396;-58
2023/01/26 11:07:41;;;;;;;1077.40;983.33;;;1.60;99.90;;;;;;5040291;28;20378;-59
2023/01/26 11:10:32;;;;;;;1072.87;981.53;;;1.60;99.90;;;;;;5039956;28;20781;-57
2023/01/26 11:13:11;;;;;;;1064.72;973.47;;;1.70;99.90;;;;;;5039914;28;20854;-58
2023/01/26 11:15:40;;;;;;;1073.80;982.13;;;1.70;99.90;;;;;;5041819;28;20436;-60
2023/01/26 11:18:36;;;;;;;1079.35;987.05;;;1.80;99.90;;;;;;5046436;28;20393;-59
2023/01/26 11:21:01;;;;;;;1053.23;962.00;;;1.80;99.90;;;;;;5047358;28;20405;-56
2023/01/26 11:23:33;;;;;;;1047.13;958.17;;;1.90;99.90;;;;;;5048162;28;20487;-60
2023/01/26 11:26:10;;;;;;;1044.07;957.70;;;1.90;99.90;;;;;;5047553;28;20386;-60
2023/01/26 11:28:50;;;;;;;1032.93;947.40;;;1.90;99.90;;;;;;5046337;28;20386;-60
2023/01/26 11:31:42;;;;;;;1042.88;955.20;;;1.90;99.90;;;;;;5048000;28;21076;-58
2023/01/26 11:34:28;;;;;;;1060.00;968.30;;;1.90;99.90;;;;;;5014314;28;20459;-60
2023/01/26 11:37:23;;;;;;;1063.07;970.03;;;2.00;99.90;;;;;;5043336;28;20390;-58
2023/01/26 11:40:11;;;;;;;1114.80;999.90;;;2.00;99.90;;;;;;5044970;28;20455;-58
2023/01/26 11:42:50;;;;;;;1130.93;999.90;;;2.00;99.90;;;;;;5046728;28;20398;-58
2023/01/26 11:45:32;;;;;;;1129.60;999.90;;;2.00;99.90;;;;;;5046853;28;20496;-58
2023/01/26 11:48:03;;;;;;;1084.13;987.70;;;2.10;99.90;;;;;;5046526;28;20413;-60
2023/01/26 11:50:41;;;;;;;1081.15;984.50;;;2.20;99.90;;;;;;5043902;28;20389;-59
2023/01/26 11:53:19;;;;;;;1071.43;978.17;;;2.20;99.90;;;;;;5046729;28;20394;-59
2023/01/26 11:55:52;;;;;;;1059.10;968.70;;;2.20;99.90;;;;;;5044236;28;20389;-58
2023/01/26 11:58:47;;;;;;;1067.88;976.63;;;2.30;99.90;;;;;;5045008;28;20396;-60
2023/01/26 12:01:19;;;;;;;1047.68;961.58;;;2.30;99.90;;;;;;5039489;28;20385;-58
2023/01/26 12:03:46;;;;;;;1034.13;949.17;;;2.40;99.90;;;;;;5038633;28;20482;-57
2023/01/26 12:06:27;;;;;;;1030.72;946.67;;;2.40;99.90;;;;;;5039615;28;20377;-60
2023/01/26 12:09:02;;;;;;;1040.90;955.10;;;2.40;99.90;;;;;;5036361;28;20385;-59
2023/01/26 12:11:40;;;;;;;1045.20;957.83;;;2.30;99.90;;;;;;5032472;28;20793;-60
2023/01/26 12:14:36;;;;;;;1115.40;999.90;;;2.30;99.90;;;;;;5034996;28;20393;-60
2023/01/26 12:17:24;;;;;;;1098.00;998.40;;;2.40;99.90;;;;;;5034415;28;20724;-60
2023/01/26 12:20:08;;;;;;;1108.95;999.90;;;2.40;99.90;;;;;;5023159;28;20573;-58
2023/01/26 12:22:41;;;;;;;1097.85;999.90;;;2.40;99.90;;;;;;5025758;28;20602;-59
2023/01/26 12:25:27;;;;;;;1097.40;999.85;;;2.40;99.90;;;;;;5025006;28;20381;-56
2023/01/26 12:28:14;;;;;;;1131.47;999.90;;;2.40;99.90;;;;;;5022423;28;20769;-54
2023/01/26 12:30:59;;;;;;;1109.60;999.90;;;2.50;99.90;;;;;;5027998;28;20404;-59
2023/01/26 12:33:25;;;;;;;1126.30;999.90;;;2.40;99.90;;;;;;5034873;28;20463;-58
2023/01/26 12:36:16;;;;;;;1106.87;999.90;;;2.50;99.90;;;;;;5034830;28;20444;-59
2023/01/26 12:39:06;;;;;;;1136.57;999.90;;;2.50;99.90;;;;;;5035873;28;20781;-59
2023/01/26 12:42:00;;;;;;;1134.00;999.90;;;2.50;99.90;;;;;;5036945;28;20396;-60
2023/01/26 12:44:34;;;;;;;1136.22;999.90;;;2.60;99.90;;;;;;5037903;28;20405;-60
2023/01/26 12:47:21;;;;;;;1164.10;999.90;;;2.50;99.90;;;;;;5038470;28;21072;-57
2023/01/26 12:50:02;;;;;;;1143.53;999.90;;;2.60;99.90;;;;;;5038475;28;20517;-58
2023/01/26 12:52:41;;;;;;;1149.95;999.90;;;2.60;99.90;;;;;;5035831;28;20416;-58
2023/01/26 12:55:33;;;;;;;1139.28;999.90;;;2.60;99.90;;;;;;5043061;28;20443;-59
2023/01/26 12:57:59;;;;;;;1152.15;999.90;;;2.60;99.90;;;;;;5044459;28;20433;-57
2023/01/26 13:00:29;;;;;;;1157.60;999.90;;;2.60;99.90;;;;;;5042485;28;20468;-56
2023/01/26 13:03:01;;;;;;;1148.72;999.90;;;2.60;99.90;;;;;;5040424;28;20410;-56
2023/01/26 13:05:35;;;;;;;1149.72;999.90;;;2.60;99.90;;;;;;5040951;28;20438;-56
2023/01/26 13:08:31;;;;;;;1162.45;999.90;;;2.60;99.90;;;;;;5041902;28;20378;-59
2023/01/26 13:10:59;;;;;;;1171.55;999.90;;;2.60;99.90;;;;;;5040394;28;20788;-59